createdAt,value
2023-04-02T00:02:21.259Z,9.90
2023-04-02T00:07:30.148Z,10.00
2023-04-02T00:12:31.910Z,9.90
2023-04-02T00:17:33.639Z,9.90
2023-04-02T00:22:35.392Z,9.90
2023-04-02T00:27:37.094Z,9.90
2023-04-02T00:32:39.572Z,9.90
2023-04-02T00:37:42.170Z,9.90
2023-04-02T00:42:44.714Z,9.90
2023-04-02T00:47:46.508Z,9.80
2023-04-02T00:52:52.030Z,9.80
2023-04-02T00:57:56.201Z,9.80
2023-04-02T01:03:16.868Z,9.80
2023-04-02T01:08:33.987Z,9.80
2023-04-02T01:13:59.864Z,9.80
2023-04-02T01:19:35.577Z,9.80
2023-04-02T01:24:38.399Z,9.80
2023-04-02T01:29:45.479Z,9.90
2023-04-02T01:34:49.392Z,9.90
2023-04-02T01:40:07.546Z,9.80
2023-04-02T01:45:15.352Z,9.90
2023-04-02T01:50:19.934Z,9.90
2023-04-02T01:55:48.704Z,9.90
2023-04-02T02:01:08.342Z,9.90
2023-04-02T02:06:15.989Z,9.90
2023-04-02T02:11:21.600Z,9.90
2023-04-02T02:16:24.328Z,9.80
2023-04-02T02:21:39.984Z,9.80
2023-04-02T02:26:43.840Z,9.90
2023-04-02T02:31:52.022Z,9.80
2023-04-02T02:37:04.320Z,9.90
2023-04-02T02:42:31.602Z,9.80
2023-04-02T02:47:37.898Z,9.80
2023-04-02T02:52:49.298Z,9.70
2023-04-02T02:58:00.147Z,9.70
2023-04-02T03:03:11.402Z,9.70
2023-04-02T03:08:23.010Z,9.70
2023-04-02T03:13:32.794Z,9.80
2023-04-02T03:18:52.151Z,9.70
2023-04-02T03:24:05.952Z,9.70
2023-04-02T03:29:13.751Z,9.60
2023-04-02T03:34:26.429Z,9.80
2023-04-02T03:39:43.661Z,9.80
2023-04-02T03:44:54.716Z,9.80
2023-04-02T03:50:03.531Z,9.80
2023-04-02T03:55:17.421Z,9.80
2023-04-02T04:00:45.419Z,9.60
2023-04-02T04:05:59.661Z,9.80
2023-04-02T04:11:09.013Z,9.70
2023-04-02T04:16:19.019Z,9.70
2023-04-02T04:21:31.292Z,9.80
2023-04-02T04:26:53.439Z,9.80
2023-04-02T04:31:58.748Z,9.70
2023-04-02T04:37:07.876Z,9.90
2023-04-02T04:42:24.334Z,9.90
2023-04-02T04:47:33.652Z,10.00
2023-04-02T04:52:40.975Z,9.90
2023-04-02T04:57:43.498Z,9.80
2023-04-02T05:03:20.645Z,9.80
2023-04-02T05:08:32.904Z,9.80
2023-04-02T05:13:50.932Z,9.90
2023-04-02T05:19:22.101Z,9.80
2023-04-02T05:24:59.473Z,9.80
2023-04-02T05:30:23.444Z,9.70
2023-04-02T05:35:35.222Z,9.70
2023-04-02T05:40:42.788Z,9.90
2023-04-02T05:45:53.542Z,9.80
2023-04-02T05:50:58.870Z,9.80
2023-04-02T05:56:56.087Z,9.80
2023-04-02T06:02:25.020Z,9.70
2023-04-02T06:07:46.488Z,9.10
2023-04-02T06:12:55.555Z,8.80
2023-04-02T06:18:08.540Z,8.60
2023-04-02T06:23:20.097Z,8.50
2023-04-02T06:29:15.822Z,8.50
2023-04-02T06:34:21.068Z,8.40
2023-04-02T06:39:48.853Z,8.40
2023-04-02T06:44:52.689Z,8.30
2023-04-02T06:50:34.278Z,8.50
2023-04-02T06:56:06.054Z,8.30
2023-04-02T07:01:17.991Z,8.40
2023-04-02T07:06:21.644Z,8.40
2023-04-02T07:11:26.105Z,8.50
2023-04-02T07:16:33.425Z,8.50
2023-04-02T07:21:35.543Z,8.40
2023-04-02T07:26:38.734Z,8.30
2023-04-02T07:31:43.175Z,8.40
2023-04-02T07:36:44.924Z,8.30
2023-04-02T07:41:58.070Z,8.30
2023-04-02T07:47:00.099Z,8.50
2023-04-02T07:52:02.098Z,8.30
2023-04-02T07:57:03.992Z,8.10
2023-04-02T08:02:06.256Z,8.40
2023-04-02T08:07:08.305Z,8.50
2023-04-02T08:12:13.968Z,8.50
2023-04-02T08:17:15.860Z,8.40
2023-04-02T08:22:17.691Z,8.50
2023-04-02T08:27:19.483Z,8.20
2023-04-02T08:32:21.991Z,8.40
2023-04-02T08:37:23.688Z,8.10
2023-04-02T08:42:40.987Z,8.00
2023-04-02T08:47:44.251Z,7.70
2023-04-02T08:52:45.986Z,8.20
2023-04-02T08:57:57.492Z,8.20
2023-04-02T09:03:08.481Z,8.40
2023-04-02T09:08:22.207Z,8.40
2023-04-02T09:13:27.433Z,9.00
2023-04-02T09:18:32.015Z,9.10
2023-04-02T09:23:33.811Z,9.00
2023-04-02T09:28:35.602Z,9.00
2023-04-02T09:33:48.860Z,8.90
2023-04-02T09:39:06.426Z,8.80
2023-04-02T09:44:26.873Z,8.20
2023-04-02T09:49:31.605Z,8.20
2023-04-02T09:54:33.340Z,8.60
2023-04-02T09:59:34.998Z,8.20
2023-04-02T10:04:44.578Z,8.60
2023-04-02T10:09:58.115Z,8.40
2023-04-02T10:15:01.278Z,8.70
2023-04-02T10:20:11.528Z,8.70
2023-04-02T10:25:18.635Z,8.40
2023-04-02T10:30:33.757Z,8.60
2023-04-02T10:35:45.092Z,8.40
2023-04-02T10:40:53.654Z,8.20
2023-04-02T10:46:24.455Z,8.30
2023-04-02T10:51:53.677Z,8.30
2023-04-02T10:57:05.430Z,8.80
2023-04-02T11:02:28.673Z,9.20
2023-04-02T11:07:34.081Z,9.20
2023-04-02T11:12:43.101Z,8.90
2023-04-02T11:17:46.292Z,9.00
2023-04-02T11:23:06.413Z,9.50
2023-04-02T11:28:30.035Z,9.50
2023-04-02T11:33:38.285Z,9.20
2023-04-02T11:38:49.374Z,9.20
2023-04-02T11:43:52.074Z,9.00
2023-04-02T11:48:55.118Z,8.80
2023-04-02T11:53:59.946Z,8.70
2023-04-02T11:59:17.053Z,8.70
2023-04-02T12:04:45.516Z,9.10
2023-04-02T12:09:54.973Z,9.00
2023-04-02T12:14:58.277Z,9.10
2023-04-02T12:20:05.715Z,8.70
2023-04-02T12:25:26.862Z,8.50
2023-04-02T12:30:28.839Z,8.70
2023-04-02T12:35:35.938Z,8.80
2023-04-02T12:40:38.011Z,9.00
2023-04-02T12:45:40.384Z,9.20
2023-04-02T12:50:42.265Z,9.50
2023-04-02T12:55:51.244Z,9.30
2023-04-02T13:01:08.275Z,9.10
2023-04-02T13:06:22.505Z,9.20
2023-04-02T13:11:38.054Z,9.50
2023-04-02T13:16:40.694Z,9.60
2023-04-02T13:21:42.674Z,9.40
2023-04-02T13:26:44.764Z,8.80
2023-04-02T13:31:46.630Z,8.80
2023-04-02T13:36:48.733Z,8.80
2023-04-02T13:41:57.171Z,8.60
2023-04-02T13:46:59.939Z,8.70
2023-04-02T13:52:05.510Z,8.80
2023-04-02T13:57:07.498Z,8.40
2023-04-02T14:02:14.375Z,8.40
2023-04-02T14:07:16.338Z,8.30
2023-04-02T14:12:58.925Z,8.00
2023-04-02T14:18:07.194Z,8.00
2023-04-02T14:23:22.587Z,8.10
2023-04-02T14:28:46.992Z,8.20
2023-04-02T14:34:02.752Z,7.70
2023-04-02T14:39:49.085Z,7.80
2023-04-02T14:45:05.047Z,7.50
2023-04-02T14:50:31.114Z,7.60
2023-04-02T14:55:43.548Z,8.00
2023-04-02T15:01:10.286Z,7.70
2023-04-02T15:06:23.471Z,7.90
2023-04-02T15:11:34.967Z,7.80
2023-04-02T15:16:36.948Z,7.60
2023-04-02T15:21:59.939Z,7.40
2023-04-02T15:27:12.049Z,6.90
2023-04-02T15:32:41.199Z,6.80
2023-04-02T15:38:18.008Z,6.70
2023-04-02T15:43:23.591Z,7.00
2023-04-02T15:48:37.219Z,6.90
2023-04-02T15:54:00.293Z,6.60
2023-04-02T15:59:31.333Z,6.20
2023-04-02T16:04:45.603Z,6.40
2023-04-02T16:10:05.078Z,6.30
2023-04-02T16:15:24.497Z,6.30
2023-04-02T16:20:32.702Z,6.30
2023-04-02T16:25:44.170Z,6.20
2023-04-02T16:30:55.757Z,6.10
2023-04-02T16:36:30.707Z,6.10
2023-04-02T16:41:42.276Z,6.00
2023-04-02T16:47:11.331Z,5.90
2023-04-02T16:52:45.604Z,5.90
2023-04-02T16:58:21.227Z,6.20
2023-04-02T17:03:47.645Z,6.00
2023-04-02T17:09:03.186Z,5.80
2023-04-02T17:14:15.466Z,5.60
2023-04-02T17:19:19.279Z,5.50
2023-04-02T17:24:33.267Z,5.60
2023-04-02T17:29:44.824Z,5.50
2023-04-02T17:34:46.546Z,5.50
2023-04-02T17:40:21.498Z,5.30
2023-04-02T17:45:41.292Z,5.30
2023-04-02T17:51:02.273Z,5.30
2023-04-02T17:56:22.141Z,5.30
2023-04-02T18:01:36.288Z,5.40
2023-04-02T18:06:55.008Z,5.20
2023-04-02T18:12:16.703Z,5.10
2023-04-02T18:17:49.920Z,5.30
2023-04-02T18:23:15.812Z,5.30
2023-04-02T18:28:44.908Z,5.30
2023-04-02T18:34:01.643Z,5.30
2023-04-02T18:39:39.792Z,5.40
2023-04-02T18:45:04.508Z,5.40
2023-04-02T18:50:29.035Z,5.40
2023-04-02T18:55:31.997Z,5.50
2023-04-02T19:00:40.083Z,5.50
2023-04-02T19:05:49.363Z,5.50
2023-04-02T19:10:59.611Z,5.50
2023-04-02T19:16:37.873Z,5.50
2023-04-02T19:21:55.235Z,5.50
2023-04-02T19:27:14.406Z,5.60
2023-04-02T19:32:44.252Z,5.60
2023-04-02T19:38:09.814Z,5.50
2023-04-02T19:43:11.956Z,5.50
2023-04-02T19:48:17.351Z,5.40
2023-04-02T19:53:19.822Z,5.40
2023-04-02T19:58:27.613Z,5.50
2023-04-02T20:03:30.372Z,5.50
2023-04-02T20:08:32.229Z,5.60
2023-04-02T20:13:34.809Z,5.50
2023-04-02T20:18:37.434Z,5.40
2023-04-02T20:23:39.444Z,5.20
2023-04-02T20:28:41.389Z,5.10
2023-04-02T20:33:44.407Z,5.10
2023-04-02T20:38:46.478Z,4.90
2023-04-02T20:43:49.827Z,4.70
2023-04-02T20:48:51.548Z,4.60
2023-04-02T20:53:53.921Z,4.50
2023-04-02T20:58:55.847Z,4.40
2023-04-02T21:04:03.618Z,4.30
2023-04-02T21:09:08.643Z,4.20
2023-04-02T21:14:11.212Z,4.10
2023-04-02T21:19:13.321Z,3.90
2023-04-02T21:24:15.306Z,3.80
2023-04-02T21:29:17.261Z,3.70
2023-04-02T21:34:19.430Z,3.60
2023-04-02T21:39:23.558Z,3.60
2023-04-02T21:44:25.730Z,3.50
2023-04-02T21:49:28.024Z,3.50
2023-04-02T21:54:30.345Z,3.50
2023-04-02T21:59:32.307Z,3.30
2023-04-02T22:04:34.125Z,3.30
2023-04-02T22:09:35.958Z,3.30
2023-04-02T22:14:37.709Z,3.30
2023-04-02T22:19:39.491Z,3.20
2023-04-02T22:24:41.184Z,3.20
2023-04-02T22:29:42.871Z,3.20
2023-04-02T22:34:45.706Z,3.00
2023-04-02T22:39:47.486Z,2.90
2023-04-02T22:44:49.183Z,2.80
2023-04-02T22:49:50.892Z,2.70
2023-04-02T22:54:52.594Z,2.50
2023-04-02T22:59:54.364Z,2.40
2023-04-02T23:04:56.197Z,2.30
2023-04-02T23:09:57.902Z,2.20
2023-04-02T23:15:02.014Z,2.10
2023-04-02T23:20:05.613Z,2.00
2023-04-02T23:25:08.096Z,2.20
2023-04-02T23:30:10.060Z,2.20
2023-04-02T23:35:11.795Z,2.20
2023-04-02T23:40:13.602Z,2.10
2023-04-02T23:45:16.081Z,2.10
2023-04-02T23:50:17.980Z,2.30
2023-04-02T23:55:19.697Z,2.50
